sensor_id;sensor_type;location;lat;lon;timestamp;pressure;altitude;pressure_sealevel;temperature;humidity
56689;BME280;42565;53.342;-1.534;2023-08-21T00:01:01;99543.68;;;18.72;59.88
56689;BME280;42565;53.342;-1.534;2023-08-21T00:03:28;99541.02;;;18.58;60.40
56689;BME280;42565;53.342;-1.534;2023-08-21T00:05:55;99542.15;;;17.33;62.57
56689;BME280;42565;53.342;-1.534;2023-08-21T00:08:23;99535.56;;;18.16;61.67
56689;BME280;42565;53.342;-1.534;2023-08-21T00:10:50;99531.28;;;18.42;61.51
56689;BME280;42565;53.342;-1.534;2023-08-21T00:13:17;99531.27;;;18.45;61.16
56689;BME280;42565;53.342;-1.534;2023-08-21T00:15:45;99530.87;;;18.29;61.45
56689;BME280;42565;53.342;-1.534;2023-08-21T00:18:12;99531.49;;;18.18;60.92
56689;BME280;42565;53.342;-1.534;2023-08-21T00:20:40;99532.82;;;18.59;60.62
56689;BME280;42565;53.342;-1.534;2023-08-21T00:23:07;99532.88;;;18.45;60.83
56689;BME280;42565;53.342;-1.534;2023-08-21T00:25:35;99527.84;;;18.30;61.73
56689;BME280;42565;53.342;-1.534;2023-08-21T00:28:02;99520.85;;;18.06;61.02
56689;BME280;42565;53.342;-1.534;2023-08-21T00:30:30;99519.47;;;18.11;61.64
56689;BME280;42565;53.342;-1.534;2023-08-21T00:32:57;99511.27;;;17.22;62.42
56689;BME280;42565;53.342;-1.534;2023-08-21T00:35:24;99511.80;;;17.83;63.05
56689;BME280;42565;53.342;-1.534;2023-08-21T00:37:51;99514.75;;;18.40;61.52
56689;BME280;42565;53.342;-1.534;2023-08-21T00:40:19;99514.68;;;18.03;62.55
56689;BME280;42565;53.342;-1.534;2023-08-21T00:42:46;99512.82;;;18.44;62.06
56689;BME280;42565;53.342;-1.534;2023-08-21T00:45:14;99512.96;;;17.72;62.25
56689;BME280;42565;53.342;-1.534;2023-08-21T00:47:42;99511.53;;;18.09;61.86
56689;BME280;42565;53.342;-1.534;2023-08-21T00:50:10;99512.25;;;18.30;61.94
56689;BME280;42565;53.342;-1.534;2023-08-21T00:52:39;99514.27;;;17.98;62.98
56689;BME280;42565;53.342;-1.534;2023-08-21T00:55:07;99513.44;;;17.44;63.39
56689;BME280;42565;53.342;-1.534;2023-08-21T00:57:35;99518.48;;;17.84;62.52
56689;BME280;42565;53.342;-1.534;2023-08-21T01:00:03;99520.69;;;17.84;62.15
56689;BME280;42565;53.342;-1.534;2023-08-21T01:02:31;99519.92;;;18.04;62.03
56689;BME280;42565;53.342;-1.534;2023-08-21T01:04:58;99516.66;;;17.27;62.98
56689;BME280;42565;53.342;-1.534;2023-08-21T01:07:26;99519.74;;;18.22;63.32
56689;BME280;42565;53.342;-1.534;2023-08-21T01:09:58;99516.15;;;17.73;62.62
56689;BME280;42565;53.342;-1.534;2023-08-21T01:12:33;99521.21;;;18.38;62.52
56689;BME280;42565;53.342;-1.534;2023-08-21T01:15:04;99519.85;;;17.97;62.54
56689;BME280;42565;53.342;-1.534;2023-08-21T01:17:34;99526.55;;;18.36;63.04
56689;BME280;42565;53.342;-1.534;2023-08-21T01:20:05;99530.90;;;17.27;65.56
56689;BME280;42565;53.342;-1.534;2023-08-21T01:22:36;99530.10;;;18.17;64.70
56689;BME280;42565;53.342;-1.534;2023-08-21T01:25:05;99534.18;;;17.46;64.90
56689;BME280;42565;53.342;-1.534;2023-08-21T01:27:32;99533.40;;;16.98;69.10
56689;BME280;42565;53.342;-1.534;2023-08-21T01:30:01;99543.15;;;16.35;68.92
56689;BME280;42565;53.342;-1.534;2023-08-21T01:32:33;99536.69;;;16.19;73.32
56689;BME280;42565;53.342;-1.534;2023-08-21T01:35:03;99534.54;;;16.63;69.14
56689;BME280;42565;53.342;-1.534;2023-08-21T01:37:32;99538.19;;;17.86;66.70
56689;BME280;42565;53.342;-1.534;2023-08-21T01:40:00;99535.57;;;17.19;66.95
56689;BME280;42565;53.342;-1.534;2023-08-21T01:42:27;99538.89;;;17.75;68.69
56689;BME280;42565;53.342;-1.534;2023-08-21T01:44:55;99536.50;;;16.81;68.79
56689;BME280;42565;53.342;-1.534;2023-08-21T01:47:22;99538.81;;;17.64;67.90
56689;BME280;42565;53.342;-1.534;2023-08-21T01:49:50;99538.90;;;17.71;67.91
56689;BME280;42565;53.342;-1.534;2023-08-21T01:52:17;99535.63;;;16.91;69.87
56689;BME280;42565;53.342;-1.534;2023-08-21T01:54:45;99534.09;;;17.12;70.45
56689;BME280;42565;53.342;-1.534;2023-08-21T01:57:12;99535.40;;;16.96;70.12
56689;BME280;42565;53.342;-1.534;2023-08-21T01:59:40;99535.98;;;17.79;68.73
56689;BME280;42565;53.342;-1.534;2023-08-21T02:02:07;99534.69;;;16.98;68.46
56689;BME280;42565;53.342;-1.534;2023-08-21T02:04:35;99533.25;;;17.96;67.29
56689;BME280;42565;53.342;-1.534;2023-08-21T02:07:02;99528.92;;;18.44;66.80
56689;BME280;42565;53.342;-1.534;2023-08-21T02:09:30;99529.71;;;17.88;66.75
56689;BME280;42565;53.342;-1.534;2023-08-21T02:11:58;99528.28;;;17.50;65.73
56689;BME280;42565;53.342;-1.534;2023-08-21T02:14:25;99528.42;;;17.83;66.30
56689;BME280;42565;53.342;-1.534;2023-08-21T02:16:53;99523.72;;;17.75;65.24
56689;BME280;42565;53.342;-1.534;2023-08-21T02:19:20;99522.63;;;17.67;65.45
56689;BME280;42565;53.342;-1.534;2023-08-21T02:21:47;99524.50;;;18.39;64.95
56689;BME280;42565;53.342;-1.534;2023-08-21T02:24:15;99527.73;;;17.77;65.59
56689;BME280;42565;53.342;-1.534;2023-08-21T02:26:42;99532.48;;;17.64;66.31
56689;BME280;42565;53.342;-1.534;2023-08-21T02:29:10;99534.33;;;16.61;69.02
56689;BME280;42565;53.342;-1.534;2023-08-21T02:31:37;99526.83;;;17.46;67.30
56689;BME280;42565;53.342;-1.534;2023-08-21T02:34:05;99518.91;;;16.53;68.36
56689;BME280;42565;53.342;-1.534;2023-08-21T02:36:32;99524.98;;;16.87;68.74
56689;BME280;42565;53.342;-1.534;2023-08-21T02:39:00;99524.56;;;16.43;68.80
56689;BME280;42565;53.342;-1.534;2023-08-21T02:41:27;99526.37;;;15.46;73.46
56689;BME280;42565;53.342;-1.534;2023-08-21T02:43:55;99531.06;;;15.89;69.88
56689;BME280;42565;53.342;-1.534;2023-08-21T02:46:22;99535.81;;;16.66;68.70
56689;BME280;42565;53.342;-1.534;2023-08-21T02:48:50;99535.82;;;17.03;67.77
56689;BME280;42565;53.342;-1.534;2023-08-21T02:51:17;99536.00;;;17.17;66.75
56689;BME280;42565;53.342;-1.534;2023-08-21T02:53:45;99538.43;;;15.72;68.87
56689;BME280;42565;53.342;-1.534;2023-08-21T02:56:12;99532.31;;;15.77;70.08
56689;BME280;42565;53.342;-1.534;2023-08-21T02:58:40;99528.84;;;15.44;71.50
56689;BME280;42565;53.342;-1.534;2023-08-21T03:01:08;99532.15;;;14.33;75.08
56689;BME280;42565;53.342;-1.534;2023-08-21T03:03:35;99538.04;;;14.78;76.56
56689;BME280;42565;53.342;-1.534;2023-08-21T03:06:03;99545.04;;;14.30;75.03
56689;BME280;42565;53.342;-1.534;2023-08-21T03:08:30;99543.31;;;15.06;74.05
56689;BME280;42565;53.342;-1.534;2023-08-21T03:10:58;99551.36;;;15.40;71.44
56689;BME280;42565;53.342;-1.534;2023-08-21T03:13:25;99553.02;;;15.95;71.00
56689;BME280;42565;53.342;-1.534;2023-08-21T03:15:52;99552.54;;;15.78;70.21
56689;BME280;42565;53.342;-1.534;2023-08-21T03:18:19;99550.99;;;15.89;69.34
56689;BME280;42565;53.342;-1.534;2023-08-21T03:20:47;99542.92;;;16.08;69.46
56689;BME280;42565;53.342;-1.534;2023-08-21T03:23:15;99538.22;;;16.45;68.03
56689;BME280;42565;53.342;-1.534;2023-08-21T03:25:42;99534.88;;;16.88;66.66
56689;BME280;42565;53.342;-1.534;2023-08-21T03:28:10;99535.07;;;16.52;67.37
56689;BME280;42565;53.342;-1.534;2023-08-21T03:30:39;99526.81;;;15.29;73.90
56689;BME280;42565;53.342;-1.534;2023-08-21T03:33:06;99516.90;;;14.89;73.43
56689;BME280;42565;53.342;-1.534;2023-08-21T03:35:34;99516.82;;;15.58;73.00
56689;BME280;42565;53.342;-1.534;2023-08-21T03:38:01;99520.20;;;14.77;73.41
56689;BME280;42565;53.342;-1.534;2023-08-21T03:40:28;99526.79;;;15.34;73.59
56689;BME280;42565;53.342;-1.534;2023-08-21T03:42:55;99527.45;;;15.81;70.77
56689;BME280;42565;53.342;-1.534;2023-08-21T03:45:22;99521.26;;;16.25;69.41
56689;BME280;42565;53.342;-1.534;2023-08-21T03:47:50;99518.24;;;15.58;72.21
56689;BME280;42565;53.342;-1.534;2023-08-21T03:50:17;99516.09;;;14.91;73.50
56689;BME280;42565;53.342;-1.534;2023-08-21T03:52:45;99516.67;;;14.85;76.40
56689;BME280;42565;53.342;-1.534;2023-08-21T03:55:13;99511.76;;;14.69;77.19
56689;BME280;42565;53.342;-1.534;2023-08-21T03:57:40;99520.37;;;14.58;76.77
56689;BME280;42565;53.342;-1.534;2023-08-21T04:00:08;99519.39;;;13.54;79.89
56689;BME280;42565;53.342;-1.534;2023-08-21T04:02:35;99518.44;;;13.80;80.74
56689;BME280;42565;53.342;-1.534;2023-08-21T04:05:03;99523.49;;;13.92;81.40
56689;BME280;42565;53.342;-1.534;2023-08-21T04:07:30;99518.56;;;14.13;80.42
56689;BME280;42565;53.342;-1.534;2023-08-21T04:09:58;99516.23;;;13.90;81.40
56689;BME280;42565;53.342;-1.534;2023-08-21T04:12:25;99515.95;;;14.14;80.29
56689;BME280;42565;53.342;-1.534;2023-08-21T04:14:53;99516.33;;;13.79;80.45
56689;BME280;42565;53.342;-1.534;2023-08-21T04:17:21;99521.02;;;14.07;80.07
56689;BME280;42565;53.342;-1.534;2023-08-21T04:19:49;99522.66;;;14.75;76.83
56689;BME280;42565;53.342;-1.534;2023-08-21T04:22:16;99525.19;;;14.73;77.31
56689;BME280;42565;53.342;-1.534;2023-08-21T04:24:44;99520.05;;;14.62;77.44
56689;BME280;42565;53.342;-1.534;2023-08-21T04:27:11;99522.79;;;14.89;74.79
56689;BME280;42565;53.342;-1.534;2023-08-21T04:29:39;99523.97;;;14.82;76.72
56689;BME280;42565;53.342;-1.534;2023-08-21T04:32:06;99524.65;;;14.01;78.03
56689;BME280;42565;53.342;-1.534;2023-08-21T04:34:34;99524.92;;;13.55;81.16
56689;BME280;42565;53.342;-1.534;2023-08-21T04:37:01;99526.14;;;14.35;78.89
56689;BME280;42565;53.342;-1.534;2023-08-21T04:39:29;99523.76;;;14.05;79.43
56689;BME280;42565;53.342;-1.534;2023-08-21T04:41:56;99528.94;;;13.75;82.85
56689;BME280;42565;53.342;-1.534;2023-08-21T04:44:24;99532.51;;;13.71;81.31
56689;BME280;42565;53.342;-1.534;2023-08-21T04:46:50;99530.57;;;14.07;79.90
56689;BME280;42565;53.342;-1.534;2023-08-21T04:49:18;99533.61;;;13.82;80.04
56689;BME280;42565;53.342;-1.534;2023-08-21T04:51:45;99537.04;;;14.33;79.07
56689;BME280;42565;53.342;-1.534;2023-08-21T04:54:13;99539.75;;;14.11;78.15
56689;BME280;42565;53.342;-1.534;2023-08-21T04:56:40;99540.84;;;14.97;75.79
56689;BME280;42565;53.342;-1.534;2023-08-21T04:59:07;99542.07;;;14.73;75.29
56689;BME280;42565;53.342;-1.534;2023-08-21T05:01:34;99541.45;;;14.05;78.12
56689;BME280;42565;53.342;-1.534;2023-08-21T05:04:01;99545.81;;;13.11;78.62
56689;BME280;42565;53.342;-1.534;2023-08-21T05:06:28;99540.52;;;14.11;80.71
56689;BME280;42565;53.342;-1.534;2023-08-21T05:08:55;99539.07;;;13.45;80.94
56689;BME280;42565;53.342;-1.534;2023-08-21T05:11:23;99544.00;;;13.77;79.58
56689;BME280;42565;53.342;-1.534;2023-08-21T05:13:50;99544.65;;;14.49;78.00
56689;BME280;42565;53.342;-1.534;2023-08-21T05:16:17;99545.37;;;14.27;78.52
56689;BME280;42565;53.342;-1.534;2023-08-21T05:18:45;99547.31;;;13.24;84.33
56689;BME280;42565;53.342;-1.534;2023-08-21T05:21:12;99549.38;;;13.08;85.79
56689;BME280;42565;53.342;-1.534;2023-08-21T05:23:40;99546.49;;;13.36;85.06
56689;BME280;42565;53.342;-1.534;2023-08-21T05:26:07;99541.59;;;13.09;83.16
56689;BME280;42565;53.342;-1.534;2023-08-21T05:28:35;99538.25;;;12.95;86.72
56689;BME280;42565;53.342;-1.534;2023-08-21T05:31:02;99540.15;;;12.50;85.82
56689;BME280;42565;53.342;-1.534;2023-08-21T05:33:29;99532.84;;;13.81;84.42
56689;BME280;42565;53.342;-1.534;2023-08-21T05:35:57;99538.57;;;12.51;87.29
56689;BME280;42565;53.342;-1.534;2023-08-21T05:38:24;99538.29;;;13.17;88.87
56689;BME280;42565;53.342;-1.534;2023-08-21T05:40:51;99542.95;;;13.06;88.61
56689;BME280;42565;53.342;-1.534;2023-08-21T05:43:18;99541.23;;;12.92;88.55
56689;BME280;42565;53.342;-1.534;2023-08-21T05:45:46;99539.32;;;13.11;88.13
56689;BME280;42565;53.342;-1.534;2023-08-21T05:48:13;99542.05;;;13.02;87.43
56689;BME280;42565;53.342;-1.534;2023-08-21T05:50:41;99544.66;;;13.62;87.30
56689;BME280;42565;53.342;-1.534;2023-08-21T05:53:08;99541.30;;;13.09;86.58
56689;BME280;42565;53.342;-1.534;2023-08-21T05:55:37;99543.34;;;13.90;85.39
56689;BME280;42565;53.342;-1.534;2023-08-21T05:58:03;99547.81;;;12.83;86.17
56689;BME280;42565;53.342;-1.534;2023-08-21T06:00:33;99546.24;;;14.01;85.41
56689;BME280;42565;53.342;-1.534;2023-08-21T06:03:01;99552.20;;;13.61;83.56
56689;BME280;42565;53.342;-1.534;2023-08-21T06:05:28;99551.89;;;13.22;86.33
56689;BME280;42565;53.342;-1.534;2023-08-21T06:07:55;99560.36;;;13.06;87.45
56689;BME280;42565;53.342;-1.534;2023-08-21T06:10:22;99570.48;;;13.45;88.60
56689;BME280;42565;53.342;-1.534;2023-08-21T06:12:50;99564.02;;;13.71;85.82
56689;BME280;42565;53.342;-1.534;2023-08-21T06:15:17;99565.87;;;14.13;84.10
56689;BME280;42565;53.342;-1.534;2023-08-21T06:17:45;99567.10;;;14.12;83.35
56689;BME280;42565;53.342;-1.534;2023-08-21T06:20:12;99574.11;;;14.76;81.23
56689;BME280;42565;53.342;-1.534;2023-08-21T06:22:39;99567.98;;;15.14;80.89
56689;BME280;42565;53.342;-1.534;2023-08-21T06:25:08;99566.25;;;14.52;81.11
56689;BME280;42565;53.342;-1.534;2023-08-21T06:27:36;99570.55;;;14.82;80.96
56689;BME280;42565;53.342;-1.534;2023-08-21T06:30:04;99567.69;;;13.99;81.74
56689;BME280;42565;53.342;-1.534;2023-08-21T06:32:32;99568.32;;;14.75;83.18
56689;BME280;42565;53.342;-1.534;2023-08-21T06:35:00;99569.99;;;14.15;83.48
56689;BME280;42565;53.342;-1.534;2023-08-21T06:37:27;99572.91;;;14.51;82.62
56689;BME280;42565;53.342;-1.534;2023-08-21T06:39:54;99570.86;;;13.97;84.31
56689;BME280;42565;53.342;-1.534;2023-08-21T06:42:21;99570.27;;;14.32;86.07
56689;BME280;42565;53.342;-1.534;2023-08-21T06:44:49;99574.12;;;15.00;81.58
56689;BME280;42565;53.342;-1.534;2023-08-21T06:47:16;99575.98;;;14.70;82.17
56689;BME280;42565;53.342;-1.534;2023-08-21T06:49:43;99577.03;;;14.81;82.79
56689;BME280;42565;53.342;-1.534;2023-08-21T06:52:11;99582.73;;;14.36;84.34
56689;BME280;42565;53.342;-1.534;2023-08-21T06:54:38;99580.73;;;14.74;84.25
56689;BME280;42565;53.342;-1.534;2023-08-21T06:57:06;99579.93;;;14.97;82.09
56689;BME280;42565;53.342;-1.534;2023-08-21T06:59:33;99574.53;;;14.77;83.89
56689;BME280;42565;53.342;-1.534;2023-08-21T07:02:01;99575.18;;;14.52;81.69
56689;BME280;42565;53.342;-1.534;2023-08-21T07:04:28;99573.92;;;14.59;85.96
56689;BME280;42565;53.342;-1.534;2023-08-21T07:06:56;99575.83;;;14.33;84.02
56689;BME280;42565;53.342;-1.534;2023-08-21T07:09:23;99574.34;;;15.06;83.94
56689;BME280;42565;53.342;-1.534;2023-08-21T07:11:50;99583.80;;;15.40;82.65
56689;BME280;42565;53.342;-1.534;2023-08-21T07:14:17;99582.24;;;15.11;83.58
56689;BME280;42565;53.342;-1.534;2023-08-21T07:16:44;99575.62;;;15.43;83.32
56689;BME280;42565;53.342;-1.534;2023-08-21T07:19:12;99574.81;;;15.82;81.33
56689;BME280;42565;53.342;-1.534;2023-08-21T07:21:40;99589.51;;;15.85;81.05
56689;BME280;42565;53.342;-1.534;2023-08-21T07:24:07;99585.31;;;15.41;80.72
56689;BME280;42565;53.342;-1.534;2023-08-21T07:26:35;99588.39;;;15.90;81.39
56689;BME280;42565;53.342;-1.534;2023-08-21T07:29:02;99584.68;;;16.20;79.50
56689;BME280;42565;53.342;-1.534;2023-08-21T07:31:30;99585.27;;;16.31;78.20
56689;BME280;42565;53.342;-1.534;2023-08-21T07:33:57;99587.14;;;15.75;78.13
56689;BME280;42565;53.342;-1.534;2023-08-21T07:36:24;99590.41;;;16.30;77.62
56689;BME280;42565;53.342;-1.534;2023-08-21T07:38:51;99595.15;;;16.59;76.51
56689;BME280;42565;53.342;-1.534;2023-08-21T07:41:19;99596.11;;;16.44;76.21
56689;BME280;42565;53.342;-1.534;2023-08-21T07:43:46;99594.86;;;16.96;75.74
56689;BME280;42565;53.342;-1.534;2023-08-21T07:46:14;99592.00;;;16.54;76.34
56689;BME280;42565;53.342;-1.534;2023-08-21T07:48:42;99591.78;;;17.09;74.65
56689;BME280;42565;53.342;-1.534;2023-08-21T07:51:09;99596.45;;;16.43;74.84
56689;BME280;42565;53.342;-1.534;2023-08-21T07:53:37;99597.11;;;17.25;73.44
56689;BME280;42565;53.342;-1.534;2023-08-21T07:56:05;99592.37;;;16.51;73.13
56689;BME280;42565;53.342;-1.534;2023-08-21T07:58:33;99595.57;;;17.20;73.65
56689;BME280;42565;53.342;-1.534;2023-08-21T08:01:00;99592.49;;;16.73;74.54
56689;BME280;42565;53.342;-1.534;2023-08-21T08:03:27;99595.87;;;17.24;73.50
56689;BME280;42565;53.342;-1.534;2023-08-21T08:05:55;99596.24;;;17.07;72.60
56689;BME280;42565;53.342;-1.534;2023-08-21T08:08:22;99589.88;;;17.60;71.18
56689;BME280;42565;53.342;-1.534;2023-08-21T08:10:50;99589.45;;;18.03;72.15
56689;BME280;42565;53.342;-1.534;2023-08-21T08:13:17;99593.65;;;17.55;73.24
56689;BME280;42565;53.342;-1.534;2023-08-21T08:15:45;99594.33;;;17.73;72.70
56689;BME280;42565;53.342;-1.534;2023-08-21T08:18:12;99592.55;;;17.66;70.61
56689;BME280;42565;53.342;-1.534;2023-08-21T08:20:40;99595.23;;;17.86;71.72
56689;BME280;42565;53.342;-1.534;2023-08-21T08:23:08;99597.28;;;17.49;73.95
56689;BME280;42565;53.342;-1.534;2023-08-21T08:25:35;99605.93;;;18.06;73.49
56689;BME280;42565;53.342;-1.534;2023-08-21T08:28:03;99599.17;;;16.84;72.94
56689;BME280;42565;53.342;-1.534;2023-08-21T08:30:30;99595.71;;;17.62;73.03
56689;BME280;42565;53.342;-1.534;2023-08-21T08:32:58;99583.25;;;17.54;71.81
56689;BME280;42565;53.342;-1.534;2023-08-21T08:35:25;99576.93;;;18.25;69.39
56689;BME280;42565;53.342;-1.534;2023-08-21T08:37:53;99578.28;;;18.62;68.12
56689;BME280;42565;53.342;-1.534;2023-08-21T08:40:21;99583.51;;;19.47;65.17
56689;BME280;42565;53.342;-1.534;2023-08-21T08:42:49;99580.90;;;19.71;64.01
56689;BME280;42565;53.342;-1.534;2023-08-21T08:45:23;99577.52;;;18.91;65.83
56689;BME280;42565;53.342;-1.534;2023-08-21T08:47:55;99581.14;;;18.30;67.88
56689;BME280;42565;53.342;-1.534;2023-08-21T08:50:23;99593.48;;;18.55;68.19
56689;BME280;42565;53.342;-1.534;2023-08-21T08:52:52;99578.59;;;18.02;69.73
56689;BME280;42565;53.342;-1.534;2023-08-21T08:55:20;99578.21;;;18.25;69.13
56689;BME280;42565;53.342;-1.534;2023-08-21T08:57:48;99578.18;;;18.47;70.02
56689;BME280;42565;53.342;-1.534;2023-08-21T09:00:16;99569.87;;;18.10;69.74
56689;BME280;42565;53.342;-1.534;2023-08-21T09:02:42;99575.33;;;18.79;69.03
56689;BME280;42565;53.342;-1.534;2023-08-21T09:05:10;99576.02;;;18.68;69.01
56689;BME280;42565;53.342;-1.534;2023-08-21T09:07:37;99585.77;;;17.46;71.72
56689;BME280;42565;53.342;-1.534;2023-08-21T09:10:13;99576.24;;;17.83;71.12
56689;BME280;42565;53.342;-1.534;2023-08-21T09:12:40;99597.75;;;17.56;71.54
56689;BME280;42565;53.342;-1.534;2023-08-21T09:15:08;99586.58;;;17.38;74.07
56689;BME280;42565;53.342;-1.534;2023-08-21T09:17:36;99588.39;;;17.32;74.61
56689;BME280;42565;53.342;-1.534;2023-08-21T09:20:04;99585.01;;;16.39;74.41
56689;BME280;42565;53.342;-1.534;2023-08-21T09:22:32;99590.15;;;18.01;71.22
56689;BME280;42565;53.342;-1.534;2023-08-21T09:25:01;99585.62;;;18.31;71.71
56689;BME280;42565;53.342;-1.534;2023-08-21T09:27:29;99591.25;;;17.32;74.02
56689;BME280;42565;53.342;-1.534;2023-08-21T09:29:57;99585.64;;;16.69;73.89
56689;BME280;42565;53.342;-1.534;2023-08-21T09:32:25;99583.48;;;17.70;73.43
56689;BME280;42565;53.342;-1.534;2023-08-21T09:34:53;99587.83;;;17.62;72.30
56689;BME280;42565;53.342;-1.534;2023-08-21T09:37:20;99576.14;;;18.28;68.84
56689;BME280;42565;53.342;-1.534;2023-08-21T09:39:47;99566.89;;;18.63;68.70
56689;BME280;42565;53.342;-1.534;2023-08-21T09:42:15;99570.86;;;18.68;68.39
56689;BME280;42565;53.342;-1.534;2023-08-21T09:44:42;99564.10;;;18.34;69.02
56689;BME280;42565;53.342;-1.534;2023-08-21T09:47:10;99562.41;;;18.13;69.69
56689;BME280;42565;53.342;-1.534;2023-08-21T09:49:38;99560.34;;;18.59;69.67
56689;BME280;42565;53.342;-1.534;2023-08-21T09:52:08;99556.43;;;18.82;67.73
56689;BME280;42565;53.342;-1.534;2023-08-21T09:54:35;99558.89;;;19.48;65.69
56689;BME280;42565;53.342;-1.534;2023-08-21T09:57:04;99549.29;;;18.45;65.67
56689;BME280;42565;53.342;-1.534;2023-08-21T09:59:31;99557.51;;;19.32;65.92
56689;BME280;42565;53.342;-1.534;2023-08-21T10:02:00;99550.93;;;18.81;65.19
56689;BME280;42565;53.342;-1.534;2023-08-21T10:04:28;99541.20;;;19.83;63.43
56689;BME280;42565;53.342;-1.534;2023-08-21T10:06:56;99542.45;;;18.57;66.88
56689;BME280;42565;53.342;-1.534;2023-08-21T10:09:25;99531.93;;;19.38;64.66
56689;BME280;42565;53.342;-1.534;2023-08-21T10:11:54;99540.39;;;18.87;63.75
56689;BME280;42565;53.342;-1.534;2023-08-21T10:14:23;99542.58;;;19.02;66.01
56689;BME280;42565;53.342;-1.534;2023-08-21T10:16:52;99546.74;;;19.66;64.08
56689;BME280;42565;53.342;-1.534;2023-08-21T10:19:20;99538.44;;;19.35;65.04
56689;BME280;42565;53.342;-1.534;2023-08-21T10:21:48;99560.74;;;20.17;63.35
56689;BME280;42565;53.342;-1.534;2023-08-21T10:24:35;99543.41;;;20.34;61.87
56689;BME280;42565;53.342;-1.534;2023-08-21T10:27:02;99556.24;;;20.15;63.54
56689;BME280;42565;53.342;-1.534;2023-08-21T10:29:29;99545.68;;;20.36;62.75
56689;BME280;42565;53.342;-1.534;2023-08-21T10:32:01;99542.02;;;19.29;64.50
56689;BME280;42565;53.342;-1.534;2023-08-21T10:34:33;99542.86;;;20.55;62.50
56689;BME280;42565;53.342;-1.534;2023-08-21T10:37:05;99541.38;;;20.40;62.04
56689;BME280;42565;53.342;-1.534;2023-08-21T10:39:33;99542.83;;;20.63;60.44
56689;BME280;42565;53.342;-1.534;2023-08-21T10:42:01;99535.75;;;20.76;59.51
56689;BME280;42565;53.342;-1.534;2023-08-21T10:44:47;99552.00;;;21.17;58.53
56689;BME280;42565;53.342;-1.534;2023-08-21T10:47:15;99552.06;;;21.06;58.93
56689;BME280;42565;53.342;-1.534;2023-08-21T10:49:43;99540.23;;;20.94;60.24
56689;BME280;42565;53.342;-1.534;2023-08-21T10:52:11;99547.31;;;20.65;59.77
56689;BME280;42565;53.342;-1.534;2023-08-21T10:54:47;99545.60;;;22.59;55.73
56689;BME280;42565;53.342;-1.534;2023-08-21T10:57:14;99538.95;;;22.49;57.20
56689;BME280;42565;53.342;-1.534;2023-08-21T10:59:58;99551.76;;;22.27;55.01
56689;BME280;42565;53.342;-1.534;2023-08-21T11:02:28;99549.68;;;21.88;55.19
56689;BME280;42565;53.342;-1.534;2023-08-21T11:04:57;99545.39;;;21.64;53.80
56689;BME280;42565;53.342;-1.534;2023-08-21T11:07:24;99545.20;;;21.03;57.86
56689;BME280;42565;53.342;-1.534;2023-08-21T11:09:52;99545.00;;;21.68;56.26
56689;BME280;42565;53.342;-1.534;2023-08-21T11:12:20;99549.22;;;21.02;57.94
56689;BME280;42565;53.342;-1.534;2023-08-21T11:14:48;99548.43;;;20.69;58.42
56689;BME280;42565;53.342;-1.534;2023-08-21T11:17:15;99552.49;;;20.63;58.58
56689;BME280;42565;53.342;-1.534;2023-08-21T11:19:43;99547.15;;;20.23;59.85
56689;BME280;42565;53.342;-1.534;2023-08-21T11:22:11;99542.49;;;19.97;59.60
56689;BME280;42565;53.342;-1.534;2023-08-21T11:24:41;99546.68;;;19.99;58.85
56689;BME280;42565;53.342;-1.534;2023-08-21T11:27:09;99531.26;;;20.86;58.15
56689;BME280;42565;53.342;-1.534;2023-08-21T11:29:38;99534.35;;;20.54;59.37
56689;BME280;42565;53.342;-1.534;2023-08-21T11:32:09;99522.10;;;20.29;60.20
56689;BME280;42565;53.342;-1.534;2023-08-21T11:34:37;99524.67;;;21.22;56.96
56689;BME280;42565;53.342;-1.534;2023-08-21T11:37:04;99524.80;;;21.45;56.66
56689;BME280;42565;53.342;-1.534;2023-08-21T11:39:42;99528.78;;;21.99;54.57
56689;BME280;42565;53.342;-1.534;2023-08-21T11:42:10;99532.44;;;21.16;54.64
56689;BME280;42565;53.342;-1.534;2023-08-21T11:44:43;99534.80;;;21.33;56.01
56689;BME280;42565;53.342;-1.534;2023-08-21T11:47:10;99536.54;;;21.07;57.44
56689;BME280;42565;53.342;-1.534;2023-08-21T11:49:39;99539.12;;;20.53;60.26
56689;BME280;42565;53.342;-1.534;2023-08-21T11:52:06;99536.65;;;20.24;59.87
56689;BME280;42565;53.342;-1.534;2023-08-21T11:54:35;99526.09;;;21.08;60.20
56689;BME280;42565;53.342;-1.534;2023-08-21T11:57:07;99521.99;;;20.42;60.36
56689;BME280;42565;53.342;-1.534;2023-08-21T11:59:34;99516.92;;;22.02;58.68
56689;BME280;42565;53.342;-1.534;2023-08-21T12:02:08;99517.32;;;22.49;54.22
56689;BME280;42565;53.342;-1.534;2023-08-21T12:04:36;99505.41;;;23.67;51.73
56689;BME280;42565;53.342;-1.534;2023-08-21T12:07:03;99508.53;;;24.33;50.59
56689;BME280;42565;53.342;-1.534;2023-08-21T12:09:31;99511.76;;;23.86;50.18
56689;BME280;42565;53.342;-1.534;2023-08-21T12:11:59;99520.19;;;22.17;51.87
56689;BME280;42565;53.342;-1.534;2023-08-21T12:14:28;99522.25;;;22.69;52.57
56689;BME280;42565;53.342;-1.534;2023-08-21T12:16:56;99533.62;;;22.33;53.83
56689;BME280;42565;53.342;-1.534;2023-08-21T12:19:23;99526.52;;;22.26;55.76
56689;BME280;42565;53.342;-1.534;2023-08-21T12:21:51;99525.29;;;22.05;54.57
56689;BME280;42565;53.342;-1.534;2023-08-21T12:24:18;99527.65;;;22.79;53.98
56689;BME280;42565;53.342;-1.534;2023-08-21T12:26:46;99528.85;;;22.20;53.50
56689;BME280;42565;53.342;-1.534;2023-08-21T12:29:13;99521.03;;;21.66;53.46
56689;BME280;42565;53.342;-1.534;2023-08-21T12:31:41;99522.78;;;22.42;53.28
56689;BME280;42565;53.342;-1.534;2023-08-21T12:34:08;99529.49;;;21.78;55.69
56689;BME280;42565;53.342;-1.534;2023-08-21T12:36:36;99521.86;;;21.47;57.35
56689;BME280;42565;53.342;-1.534;2023-08-21T12:39:04;99512.93;;;21.48;57.82
56689;BME280;42565;53.342;-1.534;2023-08-21T12:41:32;99511.41;;;22.42;56.26
56689;BME280;42565;53.342;-1.534;2023-08-21T12:43:59;99508.95;;;21.91;55.68
56689;BME280;42565;53.342;-1.534;2023-08-21T12:46:27;99501.36;;;21.75;56.65
56689;BME280;42565;53.342;-1.534;2023-08-21T12:48:54;99494.36;;;21.96;56.33
56689;BME280;42565;53.342;-1.534;2023-08-21T12:51:22;99499.16;;;21.71;56.04
56689;BME280;42565;53.342;-1.534;2023-08-21T12:53:50;99484.46;;;20.88;59.28